Lovundjenta — LK7468 — position and weather

sailwx.info

Track history (hours):
 
Tides and Currents Weather Stations Pressure Air Temp Water Temp Dewpoint Dewpoint Depression Visibility Wind Speed Wind Dir Waves Ship Positions

Lovundjenta

Last reported at 2015-Feb-27 06:13 UTC. Time now 2015-Mar-01 06:57 UTC.
Position N 66°27' E 012°22'.

Type: Passenger vessel. MMSI: 257788900.

Date/timePositionNaut miles runAvg speedWind from/ knotsBaromVisibWave heightAir tempDewpointWater temp
2015-Feb-27 06:13N 66°27' E 012°22'5 0.4
2015-Feb-26 16:17N 66°22' E 012°22'0 0.0
2015-Feb-26 06:32N 66°22' E 012°22'0 0.0
2015-Feb-26 05:08N 66°22' E 012°22'0 0.0
2015-Feb-25 22:14N 66°22' E 012°22'0 0.0
2015-Feb-25 21:32N 66°22' E 012°22'0 0.0
2015-Feb-25 14:20N 66°22' E 012°22'0 0.0
2015-Feb-25 05:17N 66°22' E 012°22'0 0.0
2015-Feb-25 03:17N 66°22' E 012°22'0 0.0
2015-Feb-24 22:17N 66°22' E 012°22'2 0.5
2015-Feb-24 18:19N 66°23' E 012°26'2 0.0
2015-Feb-23 04:27N 66°22' E 012°22'0 0.0
2015-Feb-23 03:21N 66°22' E 012°22'0 0.0
2015-Feb-22 22:09N 66°22' E 012°22'0 0.0
2015-Feb-22 21:33N 66°22' E 012°22'0 0.0
2015-Feb-22 20:33N 66°22' E 012°22'0 0.0
2015-Feb-22 18:27N 66°22' E 012°22'0 0.0
2015-Feb-22 12:22N 66°22' E 012°22'0 0.0
2015-Feb-22 10:10N 66°22' E 012°22'0 0.0
2015-Feb-22 07:04N 66°22' E 012°22'0 0.0
2015-Feb-22 01:16N 66°22' E 012°22'0 0.0
2015-Feb-22 00:04N 66°22' E 012°22'0 0.0
2015-Feb-21 23:22N 66°22' E 012°22'1 0.0
2015-Feb-20 19:23N 66°21' E 012°24'1 0.1
2015-Feb-20 12:33N 66°22' E 012°23'0 0.3
2015-Feb-20 11:23N 66°22' E 012°22'0 0.0
2015-Feb-20 10:11N 66°22' E 012°22'  
Track history (hours):
 
Tides and Currents Weather Stations Pressure Air Temp Water Temp Dewpoint Dewpoint Depression Visibility Wind Speed Wind Dir Waves Ship Positions

Lovundjenta

Last reported at 2015-Feb-27 06:13 UTC. Time now 2015-Mar-01 06:57 UTC.
Position N 66°27' E 012°22'.

Type: Passenger vessel. MMSI: 257788900.

Date/timePositionNaut miles runAvg speedWind from/ knotsBaromVisibWave heightAir tempDewpointWater temp
2015-Feb-27 06:13N 66°27' E 012°22'5 0.4
2015-Feb-26 16:17N 66°22' E 012°22'0 0.0
2015-Feb-26 06:32N 66°22' E 012°22'0 0.0
2015-Feb-26 05:08N 66°22' E 012°22'0 0.0
2015-Feb-25 22:14N 66°22' E 012°22'0 0.0
2015-Feb-25 21:32N 66°22' E 012°22'0 0.0
2015-Feb-25 14:20N 66°22' E 012°22'0 0.0
2015-Feb-25 05:17N 66°22' E 012°22'0 0.0
2015-Feb-25 03:17N 66°22' E 012°22'0 0.0
2015-Feb-24 22:17N 66°22' E 012°22'2 0.5
2015-Feb-24 18:19N 66°23' E 012°26'2 0.0
2015-Feb-23 04:27N 66°22' E 012°22'0 0.0
2015-Feb-23 03:21N 66°22' E 012°22'0 0.0
2015-Feb-22 22:09N 66°22' E 012°22'0 0.0
2015-Feb-22 21:33N 66°22' E 012°22'0 0.0
2015-Feb-22 20:33N 66°22' E 012°22'0 0.0
2015-Feb-22 18:27N 66°22' E 012°22'0 0.0
2015-Feb-22 12:22N 66°22' E 012°22'0 0.0
2015-Feb-22 10:10N 66°22' E 012°22'0 0.0
2015-Feb-22 07:04N 66°22' E 012°22'0 0.0
2015-Feb-22 01:16N 66°22' E 012°22'0 0.0
2015-Feb-22 00:04N 66°22' E 012°22'0 0.0
2015-Feb-21 23:22N 66°22' E 012°22'1 0.0
2015-Feb-20 19:23N 66°21' E 012°24'1 0.1
2015-Feb-20 12:33N 66°22' E 012°23'0 0.3
2015-Feb-20 11:23N 66°22' E 012°22'0 0.0
2015-Feb-20 10:11N 66°22' E 012°22'  

Dump ship's entire track history